Time;durP1;ratioP1;P1;durP2;ratioP2;P2;SDS_P1;SDS_P2;PMS_P1;PMS_P2;Temp;Humidity;BMP_temperature;BMP_pressure;BME280_temperature;BME280_humidity;BME280_pressure;Samples;Min_cycle;Max_cycle;Signal;HPM_P1;HPM_P2
2022/01/22 00:00:43;;;;;;;15.00;2.50;;;;;;;;;;6107136;23;20025;-93
2022/01/22 00:03:09;;;;;;;11.90;2.60;;;;;;;;;;6156868;23;20032;-93
2022/01/22 00:05:36;;;;;;;16.20;3.47;;;;;;;;;;6136434;23;20044;-92
2022/01/22 00:08:02;;;;;;;11.52;3.15;;;;;;;;;;6136312;23;20494;-93
2022/01/22 00:10:28;;;;;;;10.75;2.97;;;;;;;;;;6136066;23;20064;-88
2022/01/22 00:14:23;;;;;;;19.92;3.53;;;;;;;;;;6135959;23;20071;-88
2022/01/22 00:15:43;;;;;;;23.38;3.65;;;;;;;;;;6160697;23;20136;-88
2022/01/22 00:18:09;;;;;;;12.13;3.40;;;;;;;;;;6135818;23;20032;-88
2022/01/22 00:20:36;;;;;;;21.63;2.90;;;;;;;;;;6194901;23;20346;-88
2022/01/22 00:23:03;;;;;;;13.55;2.25;;;;;;;;;;6220961;23;20412;-88
2022/01/22 00:25:29;;;;;;;12.63;2.40;;;;;;;;;;6195963;23;20023;-88
2022/01/22 00:27:55;;;;;;;13.77;3.13;;;;;;;;;;6196515;23;20052;-88
2022/01/22 00:30:23;;;;;;;13.52;3.10;;;;;;;;;;6196125;23;20052;-88
2022/01/22 00:32:50;;;;;;;10.85;2.92;;;;;;;;;;6221904;23;20046;-88
2022/01/22 00:35:16;;;;;;;16.80;3.08;;;;;;;;;;6196132;23;20091;-88
2022/01/22 00:37:43;;;;;;;13.07;3.15;;;;;;;;;;6195973;23;20020;-88
2022/01/22 00:40:11;;;;;;;11.93;3.40;;;;;;;;;;6197137;23;20023;-88
2022/01/22 00:42:38;;;;;;;25.95;3.22;;;;;;;;;;6196498;23;20052;-89
2022/01/22 00:45:05;;;;;;;20.45;3.60;;;;;;;;;;6221601;23;20015;-88
2022/01/22 00:47:31;;;;;;;14.05;2.90;;;;;;;;;;6220699;23;20094;-88
2022/01/22 00:49:57;;;;;;;12.18;2.70;;;;;;;;;;6196150;23;20023;-88
2022/01/22 00:52:23;;;;;;;13.50;3.67;;;;;;;;;;6196974;23;20013;-88
2022/01/22 00:54:49;;;;;;;9.18;2.75;;;;;;;;;;6196719;23;20464;-88
2022/01/22 00:57:15;;;;;;;16.38;2.83;;;;;;;;;;6196848;23;20026;-89
2022/01/22 00:59:41;;;;;;;16.65;2.88;;;;;;;;;;6198436;23;20046;-92
2022/01/22 01:02:08;;;;;;;12.23;2.72;;;;;;;;;;6230978;23;20055;-88
2022/01/22 01:04:35;;;;;;;14.88;2.90;;;;;;;;;;6222087;23;20060;-91
2022/01/22 01:07:02;;;;;;;13.35;3.13;;;;;;;;;;6222221;23;20020;-89
2022/01/22 01:09:28;;;;;;;11.05;2.80;;;;;;;;;;6222351;23;20070;-90
2022/01/22 01:11:59;;;;;;;8.23;2.58;;;;;;;;;;6222355;23;20012;-89
2022/01/22 01:14:32;;;;;;;8.85;2.58;;;;;;;;;;6223116;23;20020;-90
2022/01/22 01:33:34;;;;;;;13.95;2.88;;;;;;;;;;6248607;23;20051;-90
2022/01/22 01:36:00;;;;;;;11.18;3.65;;;;;;;;;;6222851;23;20016;-92
2022/01/22 01:38:27;;;;;;;17.50;2.55;;;;;;;;;;6223667;23;20020;-92
2022/01/22 01:41:03;;;;;;;7.20;1.50;;;;;;;;;;6222263;23;20070;-93
2022/01/22 01:43:35;;;;;;;9.90;1.95;;;;;;;;;;6221562;23;20024;-92
2022/01/22 01:46:01;;;;;;;7.32;2.03;;;;;;;;;;6247883;23;20429;-92
2022/01/22 01:48:31;;;;;;;10.98;1.67;;;;;;;;;;6222813;23;20161;-93
2022/01/22 01:50:59;;;;;;;12.05;2.17;;;;;;;;;;6222118;23;20116;-94
2022/01/22 01:58:59;;;;;;;8.23;1.90;;;;;;;;;;6101293;23;20026;-89
2022/01/22 02:01:25;;;;;;;6.80;2.25;;;;;;;;;;6076977;23;20022;-89
2022/01/22 02:03:51;;;;;;;3.90;1.25;;;;;;;;;;6101432;23;20114;-90
2022/01/22 02:06:17;;;;;;;2.83;1.60;;;;;;;;;;6101025;23;20014;-89
2022/01/22 02:08:44;;;;;;;4.88;1.30;;;;;;;;;;6101200;23;20021;-89
2022/01/22 02:11:12;;;;;;;8.75;1.63;;;;;;;;;;6100905;23;20029;-89
2022/01/22 02:13:59;;;;;;;4.88;1.70;;;;;;;;;;6101074;23;20025;-88
2022/01/22 02:24:49;;;;;;;4.20;1.20;;;;;;;;;;6100408;23;20021;-89
2022/01/22 02:27:15;;;;;;;8.80;1.42;;;;;;;;;;6100557;23;20073;-91
2022/01/22 02:29:41;;;;;;;4.05;1.40;;;;;;;;;;6101086;23;20096;-89
2022/01/22 02:32:42;;;;;;;16.17;1.60;;;;;;;;;;6107293;23;20018;-89
2022/01/22 02:37:56;;;;;;;12.07;1.58;;;;;;;;;;6161355;23;20020;-89
2022/01/22 02:40:28;;;;;;;10.90;1.57;;;;;;;;;;6162083;23;20024;-89
2022/01/22 02:42:54;;;;;;;5.65;1.80;;;;;;;;;;6161846;23;20264;-89
2022/01/22 02:45:23;;;;;;;9.35;2.55;;;;;;;;;;6161677;23;20068;-90
2022/01/22 02:47:49;;;;;;;7.50;1.77;;;;;;;;;;6161355;22;20028;-90
2022/01/22 02:50:16;;;;;;;5.57;1.88;;;;;;;;;;6161715;23;20482;-89
2022/01/22 02:52:42;;;;;;;11.18;1.48;;;;;;;;;;6161022;23;20025;-89
2022/01/22 02:55:11;;;;;;;4.85;1.30;;;;;;;;;;6161181;23;20099;-88
2022/01/22 02:57:37;;;;;;;10.40;2.10;;;;;;;;;;6161120;23;20017;-89
2022/01/22 03:00:05;;;;;;;4.72;1.27;;;;;;;;;;6161115;23;20514;-89
2022/01/22 03:02:31;;;;;;;12.65;1.55;;;;;;;;;;6161430;23;20072;-90
2022/01/22 03:04:58;;;;;;;5.63;1.30;;;;;;;;;;6137072;23;20025;-90
2022/01/22 03:07:25;;;;;;;8.20;1.92;;;;;;;;;;6137177;23;20051;-88
2022/01/22 03:09:53;;;;;;;6.18;1.73;;;;;;;;;;6136648;23;20494;-90
2022/01/22 03:20:23;;;;;;;6.57;2.20;;;;;;;;;;6252009;22;20065;-89
2022/01/22 03:28:03;;;;;;;6.20;1.42;;;;;;;;;;6252001;22;20026;-89
2022/01/22 03:30:29;;;;;;;3.15;1.67;;;;;;;;;;6226708;22;20016;-89
2022/01/22 03:32:56;;;;;;;5.93;1.67;;;;;;;;;;6251823;22;20055;-90
2022/01/22 03:37:51;;;;;;;7.28;1.20;;;;;;;;;;6251507;22;20015;-89
2022/01/22 03:40:18;;;;;;;8.85;3.65;;;;;;;;;;6226485;22;20025;-89
2022/01/22 03:42:44;;;;;;;22.08;2.75;;;;;;;;;;6226406;22;20016;-88
2022/01/22 03:45:11;;;;;;;20.35;1.73;;;;;;;;;;6278861;22;20469;-88
2022/01/22 03:47:37;;;;;;;4.72;1.63;;;;;;;;;;6226114;22;20433;-89
2022/01/22 03:50:04;;;;;;;11.13;1.80;;;;;;;;;;6226242;22;20039;-89
2022/01/22 03:52:30;;;;;;;6.22;1.65;;;;;;;;;;6252390;22;20023;-88
2022/01/22 03:54:56;;;;;;;10.80;2.00;;;;;;;;;;6226263;22;20016;-88
2022/01/22 03:57:23;;;;;;;5.20;1.50;;;;;;;;;;6227641;22;20012;-88
2022/01/22 03:59:50;;;;;;;7.43;1.80;;;;;;;;;;6226587;22;20024;-89
2022/01/22 04:03:08;;;;;;;11.13;1.77;;;;;;;;;;6221421;23;20046;-92
2022/01/22 04:05:04;;;;;;;5.45;1.67;;;;;;;;;;6245811;23;20024;-89
2022/01/22 04:10:00;;;;;;;7.75;1.33;;;;;;;;;;6246552;23;20023;-88
2022/01/22 04:12:37;;;;;;;4.03;1.25;;;;;;;;;;6222078;23;20074;-88
2022/01/22 04:15:05;;;;;;;14.10;1.67;;;;;;;;;;6221857;23;20384;-88
2022/01/22 04:25:31;;;;;;;11.18;1.95;;;;;;;;;;6246667;23;20399;-89
2022/01/22 04:27:57;;;;;;;14.45;2.05;;;;;;;;;;6221277;23;20437;-89
2022/01/22 04:30:24;;;;;;;7.88;1.42;;;;;;;;;;6221485;23;20012;-90
2022/01/22 04:32:50;;;;;;;9.77;1.80;;;;;;;;;;6246366;23;20020;-89
2022/01/22 04:35:19;;;;;;;9.40;1.65;;;;;;;;;;6220969;23;20016;-90
2022/01/22 04:37:46;;;;;;;5.68;1.65;;;;;;;;;;6221280;23;20016;-88
2022/01/22 04:40:13;;;;;;;14.73;2.08;;;;;;;;;;6221504;23;20016;-88
2022/01/22 04:42:40;;;;;;;4.63;1.67;;;;;;;;;;6246382;23;20016;-89
2022/01/22 04:45:19;;;;;;;14.43;1.58;;;;;;;;;;6221377;23;20404;-89
2022/01/22 04:55:34;;;;;;;10.43;3.85;;;;;;;;;;6247773;23;20066;-88
2022/01/22 04:58:04;;;;;;;7.43;1.40;;;;;;;;;;6246168;23;20511;-91
2022/01/22 05:00:33;;;;;;;10.55;2.22;;;;;;;;;;6221116;23;20078;-89
2022/01/22 05:03:00;;;;;;;15.68;1.48;;;;;;;;;;6220772;23;20017;-89
2022/01/22 05:05:27;;;;;;;12.38;2.95;;;;;;;;;;6220613;23;20078;-89
2022/01/22 05:07:53;;;;;;;7.15;1.67;;;;;;;;;;6221584;23;20020;-88
2022/01/22 05:10:19;;;;;;;5.18;1.40;;;;;;;;;;6221422;23;20068;-92
2022/01/22 05:12:45;;;;;;;8.73;1.38;;;;;;;;;;6221594;23;20017;-92
2022/01/22 05:15:12;;;;;;;7.32;1.33;;;;;;;;;;6221098;23;20035;-91
2022/01/22 05:17:41;;;;;;;3.90;1.50;;;;;;;;;;6246951;23;20381;-92
2022/01/22 05:23:02;;;;;;;6.13;1.83;;;;;;;;;;6246571;23;20024;-91
2022/01/22 05:25:53;;;;;;;12.40;2.70;;;;;;;;;;6221539;23;20023;-92
2022/01/22 05:39:00;;;;;;;6.10;2.25;;;;;;;;;;6247480;23;20106;-92
2022/01/22 05:41:26;;;;;;;6.30;1.55;;;;;;;;;;6220912;23;20405;-91
2022/01/22 05:43:52;;;;;;;7.68;1.90;;;;;;;;;;6218300;23;20394;-91
2022/01/22 05:46:18;;;;;;;3.92;1.35;;;;;;;;;;6218136;23;20035;-91
2022/01/22 05:48:46;;;;;;;5.63;1.60;;;;;;;;;;6218251;23;20353;-91
2022/01/22 05:51:12;;;;;;;3.33;1.70;;;;;;;;;;6216839;23;20399;-89
2022/01/22 05:53:49;;;;;;;9.45;3.22;;;;;;;;;;6217448;23;20095;-91
2022/01/22 06:01:45;;;;;;;3.92;1.83;;;;;;;;;;6244478;23;20020;-91
2022/01/22 06:04:11;;;;;;;7.32;1.88;;;;;;;;;;6217026;23;20023;-91
2022/01/22 06:06:37;;;;;;;7.18;2.75;;;;;;;;;;6219448;23;20022;-93
2022/01/22 06:09:07;;;;;;;5.82;1.95;;;;;;;;;;6219030;23;20016;-93
2022/01/22 06:11:40;;;;;;;6.53;2.17;;;;;;;;;;6218470;23;20076;-94
2022/01/22 06:14:06;;;;;;;7.53;1.75;;;;;;;;;;6219158;23;20012;-93
2022/01/22 06:16:33;;;;;;;7.10;2.00;;;;;;;;;;6244469;23;20432;-92
2022/01/22 06:18:59;;;;;;;3.00;1.60;;;;;;;;;;6218981;23;20012;-92
2022/01/22 06:21:25;;;;;;;8.38;1.65;;;;;;;;;;6219355;23;20030;-91
2022/01/22 06:23:51;;;;;;;8.85;2.05;;;;;;;;;;6219142;23;20012;-94
2022/01/22 06:26:17;;;;;;;7.07;1.50;;;;;;;;;;6218557;23;20016;-91
2022/01/22 06:28:43;;;;;;;4.38;1.60;;;;;;;;;;6218072;23;20097;-93
2022/01/22 06:31:09;;;;;;;2.67;1.63;;;;;;;;;;6218044;23;20024;-94
2022/01/22 06:33:36;;;;;;;3.05;1.50;;;;;;;;;;6218513;23;20403;-92
2022/01/22 06:36:02;;;;;;;8.20;2.67;;;;;;;;;;6220841;23;20337;-94
2022/01/22 06:38:28;;;;;;;3.92;2.15;;;;;;;;;;6244307;23;20054;-94
2022/01/22 06:43:38;;;;;;;6.93;1.20;;;;;;;;;;6245218;23;20076;-92
2022/01/22 06:46:05;;;;;;;6.70;1.45;;;;;;;;;;6244389;23;20383;-92
2022/01/22 06:48:31;;;;;;;5.88;1.17;;;;;;;;;;6219013;23;20020;-94
2022/01/22 06:50:58;;;;;;;4.65;1.17;;;;;;;;;;6219120;23;20096;-93
2022/01/22 06:53:25;;;;;;;5.75;1.20;;;;;;;;;;6219255;23;20017;-94
2022/01/22 06:55:58;;;;;;;10.65;1.45;;;;;;;;;;6245763;23;20012;-94
2022/01/22 06:58:24;;;;;;;4.47;1.73;;;;;;;;;;6244967;23;20096;-92
2022/01/22 07:00:50;;;;;;;12.23;1.83;;;;;;;;;;6220189;23;20243;-93
2022/01/22 07:03:16;;;;;;;7.63;2.20;;;;;;;;;;6220169;23;20038;-92
2022/01/22 07:05:42;;;;;;;4.38;1.52;;;;;;;;;;6221433;23;20019;-92
2022/01/22 07:08:08;;;;;;;3.75;1.73;;;;;;;;;;6219523;23;20016;-92
2022/01/22 07:10:34;;;;;;;3.95;1.13;;;;;;;;;;6218131;23;20024;-93
2022/01/22 07:13:00;;;;;;;2.05;1.08;;;;;;;;;;6219251;23;20326;-92
2022/01/22 07:15:28;;;;;;;4.15;1.45;;;;;;;;;;6220966;23;20100;-95
2022/01/22 07:17:55;;;;;;;3.97;1.20;;;;;;;;;;6249667;23;20318;-94
2022/01/22 07:20:33;;;;;;;3.55;1.35;;;;;;;;;;6221668;23;20016;-89
2022/01/22 07:23:12;;;;;;;8.35;2.03;;;;;;;;;;6221718;23;20020;-89
2022/01/22 07:25:39;;;;;;;2.63;1.23;;;;;;;;;;6221396;23;20354;-89
2022/01/22 07:28:05;;;;;;;8.80;1.30;;;;;;;;;;6247169;23;20327;-88
2022/01/22 07:30:31;;;;;;;3.63;1.58;;;;;;;;;;6222200;23;20023;-88
2022/01/22 07:32:58;;;;;;;3.33;1.30;;;;;;;;;;6248448;23;20016;-89
2022/01/22 07:35:24;;;;;;;5.80;1.60;;;;;;;;;;6221650;23;20070;-90
2022/01/22 07:37:50;;;;;;;4.50;1.67;;;;;;;;;;6221563;23;20026;-89
2022/01/22 07:40:16;;;;;;;6.00;1.10;;;;;;;;;;6222936;23;20046;-89
2022/01/22 07:42:42;;;;;;;10.32;1.73;;;;;;;;;;6247978;23;20027;-94
2022/01/22 07:45:09;;;;;;;4.75;1.25;;;;;;;;;;6221917;23;20126;-90
2022/01/22 07:47:35;;;;;;;3.65;1.25;;;;;;;;;;6221657;23;20012;-90
2022/01/22 07:50:01;;;;;;;5.35;1.83;;;;;;;;;;6246744;23;20350;-89
2022/01/22 07:52:28;;;;;;;5.30;1.40;;;;;;;;;;6225285;22;20465;-93
2022/01/22 07:54:54;;;;;;;9.07;1.50;;;;;;;;;;6226033;23;20022;-90
2022/01/22 07:57:20;;;;;;;8.75;1.52;;;;;;;;;;6220917;23;20031;-90
2022/01/22 07:59:46;;;;;;;9.75;2.10;;;;;;;;;;6222664;23;20123;-90
2022/01/22 08:02:15;;;;;;;6.45;2.20;;;;;;;;;;6223987;22;20020;-94
2022/01/22 08:04:44;;;;;;;12.00;1.75;;;;;;;;;;6228241;22;20019;-92
2022/01/22 08:07:14;;;;;;;7.97;1.75;;;;;;;;;;6227015;22;20414;-90
2022/01/22 08:13:21;;;;;;;5.55;1.55;;;;;;;;;;6280814;22;20053;-93
2022/01/22 08:36:26;;;;;;;12.73;4.53;;;;;;;;;;6219975;23;20021;-92
2022/01/22 08:38:52;;;;;;;7.63;2.00;;;;;;;;;;6195958;23;20099;-96
2022/01/22 08:41:24;;;;;;;9.93;2.00;;;;;;;;;;6206331;22;20019;-92
2022/01/22 08:43:50;;;;;;;3.88;2.10;;;;;;;;;;6249906;22;20027;-91
2022/01/22 08:46:16;;;;;;;15.30;2.60;;;;;;;;;;6255589;22;20342;-95
2022/01/22 08:48:43;;;;;;;10.32;3.13;;;;;;;;;;6253466;22;20051;-93
2022/01/22 08:51:09;;;;;;;12.25;2.50;;;;;;;;;;6249673;23;20059;-92
2022/01/22 08:53:35;;;;;;;5.68;2.35;;;;;;;;;;6225626;23;20103;-94
2022/01/22 08:56:02;;;;;;;5.70;2.88;;;;;;;;;;6222319;23;20095;-92
2022/01/22 08:58:28;;;;;;;15.63;3.08;;;;;;;;;;6221994;23;20108;-92
2022/01/22 09:00:54;;;;;;;10.18;2.63;;;;;;;;;;6220968;23;20099;-90
2022/01/22 09:03:21;;;;;;;12.68;2.75;;;;;;;;;;6221392;23;20078;-93
2022/01/22 09:05:47;;;;;;;8.95;2.33;;;;;;;;;;6219575;23;20076;-93
2022/01/22 09:08:15;;;;;;;15.20;2.50;;;;;;;;;;6219095;23;20042;-92
2022/01/22 09:10:41;;;;;;;13.07;2.67;;;;;;;;;;6220619;23;20287;-95
2022/01/22 09:13:08;;;;;;;14.98;2.80;;;;;;;;;;6221565;23;20068;-93
2022/01/22 09:15:34;;;;;;;8.48;3.03;;;;;;;;;;6221209;23;20024;-92
2022/01/22 09:18:00;;;;;;;11.65;2.53;;;;;;;;;;6220188;23;20020;-93
2022/01/22 09:22:59;;;;;;;9.13;2.88;;;;;;;;;;6245244;23;20088;-93
2022/01/22 09:25:25;;;;;;;9.10;3.38;;;;;;;;;;6220115;23;20016;-94
2022/01/22 09:27:51;;;;;;;10.45;3.20;;;;;;;;;;6219811;23;20016;-93
2022/01/22 09:30:17;;;;;;;12.32;2.28;;;;;;;;;;6246353;23;20023;-93
2022/01/22 09:32:43;;;;;;;11.80;2.70;;;;;;;;;;6245353;23;20032;-93
2022/01/22 09:35:09;;;;;;;8.90;2.55;;;;;;;;;;6221485;23;20095;-94
2022/01/22 09:37:35;;;;;;;10.32;3.30;;;;;;;;;;6221522;23;20022;-93
2022/01/22 09:40:01;;;;;;;14.57;3.05;;;;;;;;;;6246048;23;20026;-92
2022/01/22 09:42:28;;;;;;;10.02;2.95;;;;;;;;;;6221852;23;20012;-93
2022/01/22 09:44:54;;;;;;;11.02;3.45;;;;;;;;;;6220987;23;20030;-94
2022/01/22 09:47:21;;;;;;;13.57;3.22;;;;;;;;;;6221233;23;20024;-94
2022/01/22 09:49:48;;;;;;;9.98;3.00;;;;;;;;;;6220947;23;20022;-92
2022/01/22 09:52:14;;;;;;;4.95;2.25;;;;;;;;;;6220587;23;20016;-93
2022/01/22 09:54:40;;;;;;;9.02;3.55;;;;;;;;;;6221626;23;20098;-93
2022/01/22 09:57:08;;;;;;;15.70;3.53;;;;;;;;;;6246646;23;20056;-93
2022/01/22 09:59:34;;;;;;;8.95;2.45;;;;;;;;;;6221329;23;20013;-93
2022/01/22 10:02:30;;;;;;;13.80;3.28;;;;;;;;;;6224967;23;20044;-93
2022/01/22 10:04:56;;;;;;;14.65;2.92;;;;;;;;;;6135731;23;20390;-92
2022/01/22 10:07:23;;;;;;;12.93;2.83;;;;;;;;;;6134727;23;20021;-92
2022/01/22 10:09:57;;;;;;;16.48;3.42;;;;;;;;;;6135851;23;20021;-92
2022/01/22 10:12:24;;;;;;;7.78;3.50;;;;;;;;;;6135743;23;20017;-91
2022/01/22 10:15:08;;;;;;;20.05;2.72;;;;;;;;;;6134683;23;20028;-92
2022/01/22 10:17:40;;;;;;;5.53;2.65;;;;;;;;;;6135216;23;20013;-91
2022/01/22 10:20:29;;;;;;;8.68;3.25;;;;;;;;;;6134937;23;20017;-92
2022/01/22 10:23:08;;;;;;;8.00;2.60;;;;;;;;;;6135582;23;20017;-91
2022/01/22 10:25:44;;;;;;;14.23;3.60;;;;;;;;;;6134807;23;20033;-92
2022/01/22 10:28:16;;;;;;;6.53;2.55;;;;;;;;;;6135939;23;20021;-94
2022/01/22 10:30:44;;;;;;;8.85;3.05;;;;;;;;;;6136088;23;20017;-92
2022/01/22 10:33:32;;;;;;;12.88;3.67;;;;;;;;;;6135730;23;20394;-94
2022/01/22 10:36:11;;;;;;;14.32;3.67;;;;;;;;;;6135605;23;20163;-93
2022/01/22 10:38:38;;;;;;;11.02;3.22;;;;;;;;;;6135271;23;20017;-93
2022/01/22 10:41:06;;;;;;;7.15;3.00;;;;;;;;;;6191492;23;20023;-93
2022/01/22 10:43:34;;;;;;;13.57;3.55;;;;;;;;;;6220421;23;20020;-89
2022/01/22 10:48:44;;;;;;;13.18;3.38;;;;;;;;;;6245758;23;20024;-92
2022/01/22 10:51:14;;;;;;;19.67;3.65;;;;;;;;;;6221225;23;20095;-90
2022/01/22 10:53:41;;;;;;;6.60;3.55;;;;;;;;;;6222646;23;20385;-90
2022/01/22 10:56:08;;;;;;;12.73;3.92;;;;;;;;;;6247978;23;20066;-90
2022/01/22 10:58:35;;;;;;;12.90;2.95;;;;;;;;;;6222541;23;20012;-90
2022/01/22 11:01:05;;;;;;;18.95;4.00;;;6.80;99.90;;;;;;6222383;23;20020;-92
2022/01/22 11:03:32;;;;;;;14.85;4.05;;;;;;;;;;6222460;23;20016;-91
2022/01/22 11:06:03;;;;;;;24.90;5.03;;;;;;;;;;6223113;23;20019;-91
2022/01/22 11:08:30;;;;;;;7.13;3.28;;;;;;;;;;6222537;23;20024;-91
2022/01/22 11:10:56;;;;;;;6.68;2.97;;;;;;;;;;6222716;23;20090;-91
2022/01/22 11:13:22;;;;;;;14.02;4.18;;;;;;;;;;6221322;23;20477;-91
2022/01/22 11:15:51;;;;;;;11.45;3.30;;;;;;;;;;6221199;23;20142;-91
2022/01/22 11:18:19;;;;;;;12.57;3.38;;;;;;;;;;6221113;23;20051;-91
2022/01/22 11:20:45;;;;;;;7.65;3.65;;;;;;;;;;6221939;23;20016;-90
2022/01/22 11:23:13;;;;;;;13.18;3.30;;;;;;;;;;6221943;23;20016;-90
2022/01/22 11:25:40;;;;;;;7.90;3.20;;;;;;;;;;6222814;23;20027;-91
2022/01/22 11:28:06;;;;;;;16.13;3.55;;;;;;;;;;6221459;23;20039;-91
2022/01/22 11:30:32;;;;;;;14.35;3.78;;;;;;;;;;6222666;23;20446;-90
2022/01/22 11:33:01;;;;;;;13.45;4.00;;;;;;;;;;6222613;23;20015;-89
2022/01/22 11:35:33;;;;;;;15.02;3.85;;;;;;;;;;6221814;23;20023;-90
2022/01/22 11:38:05;;;;;;;9.68;3.33;;;;;;;;;;6222441;23;20012;-91
2022/01/22 11:40:33;;;;;;;14.68;3.47;;;;;;;;;;6222766;23;20054;-89
2022/01/22 11:43:12;;;;;;;9.45;3.83;;;;;;;;;;6246439;23;20051;-90
2022/01/22 11:45:39;;;;;;;9.85;3.15;;;;;;;;;;6246788;23;20031;-90
2022/01/22 11:48:30;;;;;;;14.55;4.97;;;;;;;;;;6221689;23;20052;-89
2022/01/22 11:51:16;;;;;;;13.82;3.88;;;;;;;;;;6136820;23;20019;-89
2022/01/22 11:53:53;;;;;;;12.43;4.00;;;;;;;;;;6134736;23;20478;-89
2022/01/22 11:56:26;;;;;;;11.65;3.42;;;;;;;;;;6135816;23;20069;-89
2022/01/22 11:58:59;;;;;;;7.50;3.00;;;;;;;;;;6136468;23;20151;-89
2022/01/22 12:01:50;;;;;;;16.38;3.58;;;;;;;;;;6136537;23;20517;-90
2022/01/22 12:04:19;;;;;;;5.80;3.40;;;6.90;99.90;;;;;;6136712;23;20528;-90
2022/01/22 12:07:03;;;;;;;16.30;4.45;;;;;;;;;;6136999;23;20553;-90
2022/01/22 12:09:34;;;;;;;14.45;4.03;;;;;;;;;;6162093;23;20021;-89
2022/01/22 12:15:04;;;;;;;15.57;3.65;;;;;;;;;;6161701;23;20021;-90
2022/01/22 12:17:54;;;;;;;10.98;3.05;;;;;;;;;;6137684;23;20103;-90
2022/01/22 12:21:30;;;;;;;9.98;4.15;;;;;;;;;;6161260;22;20021;-91
2022/01/22 12:23:41;;;;;;;5.80;2.60;;;;;;;;;;6162516;23;20387;-89
2022/01/22 12:26:08;;;;;;;10.13;2.97;;;;;;;;;;6136478;23;20013;-90
2022/01/22 12:28:52;;;;;;;9.75;2.90;;;;;;;;;;6227470;23;20020;-90
2022/01/22 12:31:20;;;;;;;10.20;2.95;;;;;;;;;;6223341;23;20012;-90
2022/01/22 12:33:48;;;;;;;11.43;3.83;;;;;;;;;;6222093;23;20017;-90
2022/01/22 12:36:21;;;;;;;7.43;2.70;;;;;;;;;;6221979;23;20020;-91
2022/01/22 12:38:58;;;;;;;6.65;2.20;;;;;;;;;;6221248;23;20020;-90
2022/01/22 12:43:52;;;;;;;2.80;1.67;;;;;;;;;;6246686;23;20549;-89
2022/01/22 12:46:18;;;;;;;6.53;1.92;;;;;;;;;;6222475;23;20023;-90
2022/01/22 12:48:44;;;;;;;5.57;1.92;;;;;;;;;;6222383;23;20480;-90
2022/01/22 12:51:10;;;;;;;8.57;2.85;;;;;;;;;;6247963;23;20066;-89
2022/01/22 12:53:39;;;;;;;8.55;1.80;;;;;;;;;;6222040;23;20095;-89
2022/01/22 12:58:39;;;;;;;6.63;1.58;;;;;;;;;;6247870;23;20048;-90
2022/01/22 13:01:09;;;;;;;3.10;2.03;;;;;;;;;;6222588;23;20028;-90
2022/01/22 13:03:37;;;;;;;5.47;1.27;;;;;;;;;;6222013;23;20065;-91
2022/01/22 13:06:04;;;;;;;6.72;1.60;;;;;;;;;;6221969;23;20331;-92
2022/01/22 13:08:31;;;;;;;4.82;1.73;;;;;;;;;;6221949;23;20046;-92
2022/01/22 13:10:59;;;;;;;7.82;1.75;;;;;;;;;;6221773;23;20052;-94
2022/01/22 13:13:26;;;;;;;11.07;1.95;;;;;;;;;;6221612;23;20023;-93
2022/01/22 13:16:01;;;;;;;7.95;2.17;;;;;;;;;;6246895;23;20016;-93
2022/01/22 13:18:38;;;;;;;6.57;2.15;;;;;;;;;;6221703;23;20100;-92
2022/01/22 13:21:08;;;;;;;2.38;1.65;;;;;;;;;;6222823;23;20099;-90
2022/01/22 13:23:34;;;;;;;5.53;1.67;;;;;;;;;;6222464;23;20027;-94
2022/01/22 13:26:01;;;;;;;6.53;1.90;;;;;;;;;;6222425;23;20016;-93
2022/01/22 13:28:32;;;;;;;5.43;2.00;;;;;;;;;;6221969;23;20016;-92
2022/01/22 13:31:04;;;;;;;4.43;1.40;;;;;;;;;;6221830;23;20012;-92
2022/01/22 13:33:42;;;;;;;6.15;1.83;;;;;;;;;;6222016;23;20020;-93
2022/01/22 13:37:38;;;;;;;7.35;2.25;;;;;;;;;;6222243;23;20016;-93
2022/01/22 13:49:54;;;;;;;12.02;2.72;;;;;;;;;;6246560;23;20031;-92
2022/01/22 13:52:22;;;;;;;4.70;1.80;;;;;;;;;;6221342;23;20481;-92
2022/01/22 13:54:51;;;;;;;10.68;2.28;;;;;;;;;;6222260;23;20019;-92
2022/01/22 13:57:18;;;;;;;3.85;1.33;;;;;;;;;;6221397;23;20099;-93
2022/01/22 13:59:46;;;;;;;5.53;2.00;;;;;;;;;;6223623;23;20095;-92
2022/01/22 14:02:16;;;;;;;5.53;1.45;;;;;;;;;;6247166;23;20016;-89
2022/01/22 14:04:49;;;;;;;4.10;1.50;;;;;;;;;;6247833;23;20013;-89
2022/01/22 14:07:15;;;;;;;2.00;1.08;;;;;;;;;;6222625;23;20027;-89
2022/01/22 14:09:56;;;;;;;2.50;1.33;;;;;;;;;;6222961;23;20381;-92
2022/01/22 14:12:24;;;;;;;4.90;1.60;;;;;;;;;;6221968;23;20366;-90
2022/01/22 14:14:56;;;;;;;3.38;1.42;;;;;;;;;;6247712;23;20433;-92
2022/01/22 14:17:25;;;;;;;8.15;1.20;;;;;;;;;;6222887;23;20047;-93
2022/01/22 14:19:58;;;;;;;3.47;1.55;;;;;;;;;;6222470;23;20020;-92
2022/01/22 14:22:24;;;;;;;2.47;1.33;;;;;;;;;;6222024;23;20069;-90
2022/01/22 14:24:50;;;;;;;4.32;2.08;;;;;;;;;;6246462;23;20023;-92
2022/01/22 14:27:20;;;;;;;2.92;1.40;;;;;;;;;;6247055;23;20013;-91
2022/01/22 14:29:47;;;;;;;4.22;1.30;;;;;;;;;;6223018;23;20054;-91
2022/01/22 14:32:17;;;;;;;12.20;2.10;;;;;;;;;;6222072;23;20016;-91
2022/01/22 14:34:45;;;;;;;2.65;1.10;;;;;;;;;;6248390;23;20186;-91
2022/01/22 14:37:24;;;;;;;4.20;1.02;;;;;;;;;;6247618;23;20342;-92
2022/01/22 14:45:24;;;;;;;1.27;0.93;;;;;;;;;;6248302;23;20052;-93
2022/01/22 14:47:54;;;;;;;5.60;1.10;;;;;;;;;;6222318;23;20016;-92
2022/01/22 14:50:21;;;;;;;1.88;1.00;;;;;;;;;;6226073;23;20031;-92
2022/01/22 14:52:50;;;;;;;3.58;1.80;;;;;;;;;;6225750;23;20023;-91
2022/01/22 14:55:16;;;;;;;4.03;1.40;;;;;;;;;;6227570;23;20020;-92
2022/01/22 14:57:43;;;;;;;4.63;1.42;;;;;;;;;;6226750;23;20016;-92
2022/01/22 15:00:11;;;;;;;4.40;1.20;;;;;;;;;;6226663;23;20048;-93
2022/01/22 15:02:38;;;;;;;5.22;1.50;;;;;;;;;;6226489;23;20028;-91
2022/01/22 15:05:06;;;;;;;8.70;1.73;;;;;;;;;;6226363;23;20012;-92
2022/01/22 15:07:32;;;;;;;1.83;1.40;;;;;;;;;;6227264;23;20020;-91
2022/01/22 15:09:58;;;;;;;2.05;1.20;;;;;;;;;;6251989;23;20048;-92
2022/01/22 15:12:24;;;;;;;11.05;1.35;;;;;;;;;;6226519;23;20016;-92
2022/01/22 15:14:51;;;;;;;6.88;1.60;;;;;;;;;;6226925;23;20020;-92
2022/01/22 15:19:48;;;;;;;7.15;1.48;;;;;;;;;;6252606;23;20024;-92
2022/01/22 15:22:18;;;;;;;7.90;1.42;;;;;;;;;;6250391;23;20090;-90
2022/01/22 15:24:45;;;;;;;6.15;1.63;;;;;;;;;;6222187;23;20083;-90
2022/01/22 15:27:13;;;;;;;4.32;1.52;;;;;;;;;;6221572;23;20048;-88
2022/01/22 15:30:10;;;;;;;8.60;1.63;;;;;;;;;;6246450;23;20020;-88
2022/01/22 15:35:09;;;;;;;5.90;1.67;;;;;;;;;;6246624;23;20024;-89
2022/01/22 15:37:36;;;;;;;9.60;2.63;;;;;;;;;;6219734;23;20091;-88
2022/01/22 15:40:07;;;;;;;11.93;1.95;;;;;;;;;;6218838;23;20020;-88
2022/01/22 15:42:33;;;;;;;4.85;2.00;;;;;;;;;;6219478;23;20100;-88
2022/01/22 15:44:59;;;;;;;6.30;1.63;;;;;;;;;;6216262;23;20030;-88
2022/01/22 15:47:25;;;;;;;4.80;2.20;;;;;;;;;;6217233;23;20437;-88
2022/01/22 15:49:56;;;;;;;3.03;1.70;;;;;;;;;;6241592;23;20016;-88
2022/01/22 15:52:22;;;;;;;5.57;2.15;;;;;;;;;;6215609;23;20016;-88
2022/01/22 15:54:48;;;;;;;5.03;2.03;;;;;;;;;;6241596;23;20028;-88
2022/01/22 15:57:15;;;;;;;15.38;2.10;;;;;;;;;;6215828;23;20043;-88
2022/01/22 15:59:41;;;;;;;4.38;1.60;;;;;;;;;;6215318;23;20048;-88
2022/01/22 16:02:07;;;;;;;6.20;2.22;;;;;;;;;;6216227;23;20024;-88
2022/01/22 16:04:34;;;;;;;6.20;2.70;;;;;;;;;;6218315;23;20115;-88
2022/01/22 16:07:07;;;;;;;5.53;1.90;;;;;;;;;;6214944;23;20089;-88
2022/01/22 16:09:33;;;;;;;5.32;2.00;;;;;;;;;;6239782;23;20398;-88
2022/01/22 16:12:00;;;;;;;4.78;2.03;;;;;;;;;;6214909;23;20012;-89
2022/01/22 16:14:26;;;;;;;4.45;1.92;;;;;;;;;;6240857;23;20089;-88
2022/01/22 16:16:54;;;;;;;8.77;2.33;;;;;;;;;;6217486;23;20058;-89
2022/01/22 16:19:22;;;;;;;4.88;2.45;;;;;;;;;;6219159;23;20074;-88
2022/01/22 16:21:48;;;;;;;8.82;3.20;;;;;;;;;;6216933;23;20237;-88
2022/01/22 16:24:15;;;;;;;6.13;2.78;;;6.60;99.90;;;;;;6241405;23;20061;-88
2022/01/22 16:26:41;;;;;;;5.13;2.78;;;;;;;;;;6221129;23;20099;-87
2022/01/22 16:29:08;;;;;;;9.43;3.45;;;;;;;;;;6221029;23;20027;-89
2022/01/22 16:31:35;;;;;;;6.90;2.35;;;;;;;;;;6246574;23;20020;-89
2022/01/22 16:34:03;;;;;;;8.75;1.83;;;;;;;;;;6221712;23;20016;-90
2022/01/22 16:36:29;;;;;;;7.20;2.47;;;;;;;;;;6221848;23;20012;-89
2022/01/22 16:38:57;;;;;;;7.22;2.85;;;;;;;;;;6221569;23;20031;-88
2022/01/22 16:41:23;;;;;;;6.78;2.75;;;;;;;;;;6221689;23;20048;-90
2022/01/22 16:43:51;;;;;;;8.43;2.47;;;;;;;;;;6221661;23;20043;-95
2022/01/22 16:51:55;;;;;;;5.78;2.97;;;;;;;;;;6248079;23;20023;-95
2022/01/22 16:56:57;;;;;;;6.13;2.10;;;;;;;;;;6248515;23;20020;-94
2022/01/22 16:59:24;;;;;;;12.07;3.00;;;;;;;;;;6223241;23;20012;-94
2022/01/22 17:01:54;;;;;;;6.18;1.77;;;;;;;;;;6222435;23;20086;-93
2022/01/22 17:04:28;;;;;;;6.30;2.67;;;;;;;;;;6222494;23;20016;-94
2022/01/22 17:06:55;;;;;;;9.73;2.78;;;;;;;;;;6221630;23;20055;-94
2022/01/22 17:14:39;;;;;;;5.95;2.58;;;;;;;;;;6246637;23;20510;-94
2022/01/22 17:17:06;;;;;;;10.95;2.63;;;;;;;;;;6223421;23;20020;-94
2022/01/22 17:19:32;;;;;;;6.85;2.78;;;;;;;;;;6222089;23;20012;-94
2022/01/22 17:21:59;;;;;;;3.70;2.40;;;;;;;;;;6222659;23;20020;-95
2022/01/22 17:24:25;;;;;;;7.85;3.08;;;;;;;;;;6224719;23;20008;-94
2022/01/22 17:26:52;;;;;;;8.02;2.75;;;;;;;;;;6223050;23;20103;-94
2022/01/22 17:29:19;;;;;;;13.48;2.55;;;;;;;;;;6221870;23;20027;-94